createdAt,value
2024-03-06T00:00:18.638Z,26.49
2024-03-06T00:01:18.769Z,26.51
2024-03-06T00:02:18.788Z,26.48
2024-03-06T00:03:18.704Z,26.49
2024-03-06T00:04:20.255Z,26.46
2024-03-06T00:05:18.859Z,26.45
2024-03-06T00:06:18.798Z,26.46
2024-03-06T00:07:18.860Z,26.48
2024-03-06T00:08:18.933Z,26.48
2024-03-06T00:09:18.896Z,26.48
2024-03-06T00:10:18.926Z,26.48
2024-03-06T00:11:19.045Z,26.48
2024-03-06T00:12:19.016Z,26.46
2024-03-06T00:13:19.041Z,26.45
2024-03-06T00:14:19.107Z,26.46
2024-03-06T00:15:19.116Z,26.49
2024-03-06T00:16:20.289Z,26.48
2024-03-06T00:17:19.197Z,26.46
2024-03-06T00:18:19.397Z,26.48
2024-03-06T00:19:19.244Z,26.49
2024-03-06T00:20:19.309Z,26.46
2024-03-06T00:21:19.330Z,26.46
2024-03-06T00:22:22.665Z,26.46
2024-03-06T00:23:19.366Z,26.48
2024-03-06T00:24:19.332Z,26.45
2024-03-06T00:25:19.347Z,26.46
2024-03-06T00:26:19.391Z,26.46
2024-03-06T00:27:19.378Z,26.45
2024-03-06T00:28:19.381Z,26.43
2024-03-06T00:29:19.437Z,26.48
2024-03-06T00:30:19.343Z,26.46
2024-03-06T00:31:19.348Z,26.46
2024-03-06T00:32:19.421Z,26.45
2024-03-06T00:33:19.446Z,26.48
2024-03-06T00:34:19.364Z,26.43
2024-03-06T00:35:19.407Z,26.46
2024-03-06T00:36:19.378Z,26.43
2024-03-06T00:37:19.355Z,26.45
2024-03-06T00:38:19.423Z,26.45
2024-03-06T00:39:19.391Z,26.45
2024-03-06T00:40:19.361Z,26.45
2024-03-06T00:41:19.454Z,26.43
2024-03-06T00:42:19.393Z,26.46
2024-03-06T00:43:19.395Z,26.46
2024-03-06T00:44:19.414Z,26.45
2024-03-06T00:45:19.389Z,26.45
2024-03-06T00:46:19.411Z,26.43
2024-03-06T00:47:19.403Z,26.45
2024-03-06T00:48:19.383Z,26.43
2024-03-06T00:49:19.390Z,26.45
2024-03-06T00:50:19.462Z,26.45
2024-03-06T00:51:20.817Z,26.41
2024-03-06T00:52:20.425Z,26.42
2024-03-06T00:53:19.425Z,26.43
2024-03-06T00:54:19.399Z,26.43
2024-03-06T00:55:19.409Z,26.43
2024-03-06T00:56:19.472Z,26.45
2024-03-06T00:57:19.399Z,26.41
2024-03-06T00:58:19.416Z,26.42
2024-03-06T00:59:19.456Z,26.42
2024-03-06T01:00:19.422Z,26.39
2024-03-06T01:01:19.504Z,26.42
2024-03-06T01:02:19.459Z,26.43
2024-03-06T01:03:19.424Z,26.42
2024-03-06T01:04:19.408Z,26.41
2024-03-06T01:05:19.646Z,26.42
2024-03-06T01:06:19.422Z,26.41
2024-03-06T01:07:19.415Z,26.43
2024-03-06T01:08:19.480Z,26.41
2024-03-06T01:09:19.445Z,26.42
2024-03-06T01:10:19.472Z,26.42
2024-03-06T01:11:19.637Z,26.41
2024-03-06T01:12:19.580Z,26.39
2024-03-06T01:13:19.622Z,26.41
2024-03-06T01:14:19.670Z,26.41
2024-03-06T01:15:19.688Z,26.39
2024-03-06T01:16:19.725Z,26.41
2024-03-06T01:17:19.794Z,26.41
2024-03-06T01:18:19.804Z,26.39
2024-03-06T01:19:19.837Z,26.39
2024-03-06T01:20:19.921Z,26.39
2024-03-06T01:21:19.924Z,26.41
2024-03-06T01:22:19.975Z,26.41
2024-03-06T01:23:20.046Z,26.38
2024-03-06T01:24:20.031Z,26.38
2024-03-06T01:25:20.092Z,26.39
2024-03-06T01:26:20.179Z,26.39
2024-03-06T01:27:20.212Z,26.38
2024-03-06T01:28:20.180Z,26.39
2024-03-06T01:29:20.361Z,26.38
2024-03-06T01:30:20.275Z,26.39
2024-03-06T01:31:20.318Z,26.39
2024-03-06T01:32:20.412Z,26.39
2024-03-06T01:33:20.542Z,26.41
2024-03-06T01:34:20.440Z,26.39
2024-03-06T01:35:20.530Z,26.41
2024-03-06T01:36:20.530Z,26.39
2024-03-06T01:37:20.574Z,26.41
2024-03-06T01:38:20.658Z,26.39
2024-03-06T01:39:20.716Z,26.39
2024-03-06T01:40:20.677Z,26.36
2024-03-06T01:41:20.752Z,26.38
2024-03-06T01:42:20.767Z,26.38
2024-03-06T01:43:20.812Z,26.38
2024-03-06T01:44:21.579Z,26.39
2024-03-06T01:45:20.892Z,26.38
2024-03-06T01:46:20.939Z,26.36
2024-03-06T01:47:21.019Z,26.38
2024-03-06T01:48:21.023Z,26.38
2024-03-06T01:49:28.182Z,26.36
2024-03-06T01:50:22.099Z,26.36
2024-03-06T01:51:21.101Z,26.35
2024-03-06T01:52:21.086Z,26.38
2024-03-06T01:53:21.094Z,26.35
2024-03-06T01:54:21.107Z,26.38
2024-03-06T01:55:21.072Z,26.36
2024-03-06T01:56:21.126Z,26.34
2024-03-06T01:57:21.082Z,26.35
2024-03-06T01:58:21.098Z,26.36
2024-03-06T01:59:29.520Z,26.35
2024-03-06T02:00:22.098Z,26.35
2024-03-06T02:01:21.148Z,26.36
2024-03-06T02:02:21.127Z,26.34
2024-03-06T02:03:21.089Z,26.35
2024-03-06T02:04:21.099Z,26.34
2024-03-06T02:05:21.159Z,26.36
2024-03-06T02:06:21.103Z,26.35
2024-03-06T02:07:21.123Z,26.35
2024-03-06T02:08:21.209Z,26.36
2024-03-06T02:09:21.111Z,26.35
2024-03-06T02:10:21.119Z,26.34
2024-03-06T02:11:21.138Z,26.34
2024-03-06T02:12:21.124Z,26.34
2024-03-06T02:13:21.111Z,26.34
2024-03-06T02:14:21.167Z,26.34
2024-03-06T02:15:21.197Z,26.35
2024-03-06T02:16:21.257Z,26.35
2024-03-06T02:17:21.327Z,26.35
2024-03-06T02:18:21.352Z,26.34
2024-03-06T02:19:21.381Z,26.34
2024-03-06T02:20:21.463Z,26.34
2024-03-06T02:21:21.483Z,26.35
2024-03-06T02:22:21.514Z,26.34
2024-03-06T02:23:21.627Z,26.35
2024-03-06T02:24:21.604Z,26.34
2024-03-06T02:25:21.673Z,26.32
2024-03-06T02:26:21.715Z,26.34
2024-03-06T02:27:21.744Z,26.34
2024-03-06T02:28:21.780Z,26.32
2024-03-06T02:29:21.811Z,26.32
2024-03-06T02:30:21.863Z,26.35
2024-03-06T02:31:21.908Z,26.35
2024-03-06T02:32:22.008Z,26.32
2024-03-06T02:33:22.198Z,26.32
2024-03-06T02:34:22.076Z,26.32
2024-03-06T02:35:22.177Z,26.34
2024-03-06T02:36:22.174Z,26.32
2024-03-06T02:37:22.222Z,26.32
2024-03-06T02:38:22.300Z,26.34
2024-03-06T02:39:22.337Z,26.31
2024-03-06T02:40:22.375Z,26.34
2024-03-06T02:41:22.452Z,26.32
2024-03-06T02:42:22.464Z,26.31
2024-03-06T02:43:22.510Z,26.34
2024-03-06T02:44:22.589Z,26.32
2024-03-06T02:45:22.612Z,26.32
2024-03-06T02:46:22.654Z,26.32
2024-03-06T02:47:22.701Z,26.31
2024-03-06T02:48:22.766Z,26.32
2024-03-06T02:49:22.821Z,26.31
2024-03-06T02:50:22.888Z,26.32
2024-03-06T02:51:22.917Z,26.32
2024-03-06T02:52:22.965Z,26.30
2024-03-06T02:53:23.007Z,26.31
2024-03-06T02:54:23.049Z,26.32
2024-03-06T02:55:23.107Z,26.30
2024-03-06T02:56:23.134Z,26.31
2024-03-06T02:57:23.193Z,26.31
2024-03-06T02:58:23.236Z,26.32
2024-03-06T02:59:23.277Z,26.31
2024-03-06T03:00:23.340Z,26.32
2024-03-06T03:01:23.386Z,26.32
2024-03-06T03:02:23.483Z,26.32
2024-03-06T03:03:23.480Z,26.30
2024-03-06T03:04:23.546Z,26.31
2024-03-06T03:05:23.671Z,26.30
2024-03-06T03:06:23.639Z,26.32
2024-03-06T03:07:23.701Z,26.31
2024-03-06T03:08:23.862Z,26.32
2024-03-06T03:09:23.784Z,26.32
2024-03-06T03:10:23.836Z,26.31
2024-03-06T03:11:24.009Z,26.31
2024-03-06T03:12:23.950Z,26.31
2024-03-06T03:13:23.995Z,26.32
2024-03-06T03:14:24.071Z,26.28
2024-03-06T03:15:24.112Z,26.28
2024-03-06T03:16:24.159Z,26.30
2024-03-06T03:17:24.317Z,26.31
2024-03-06T03:18:24.279Z,26.31
2024-03-06T03:19:24.328Z,26.31
2024-03-06T03:20:24.402Z,26.30
2024-03-06T03:21:24.416Z,26.28
2024-03-06T03:22:24.502Z,26.28
2024-03-06T03:23:24.533Z,26.30
2024-03-06T03:24:24.615Z,26.30
2024-03-06T03:25:24.681Z,26.30
2024-03-06T03:26:24.778Z,26.32
2024-03-06T03:27:24.734Z,26.28
2024-03-06T03:28:24.798Z,26.27
2024-03-06T03:29:24.848Z,26.28
2024-03-06T03:30:24.917Z,26.27
2024-03-06T03:31:24.952Z,26.28
2024-03-06T03:32:25.072Z,26.30
2024-03-06T03:33:25.064Z,26.30
2024-03-06T03:34:25.090Z,26.28
2024-03-06T03:35:25.209Z,26.28
2024-03-06T03:36:25.209Z,26.28
2024-03-06T03:37:25.242Z,26.30
2024-03-06T03:38:25.309Z,26.27
2024-03-06T03:39:25.391Z,26.28
2024-03-06T03:40:25.416Z,26.28
2024-03-06T03:41:25.481Z,26.27
2024-03-06T03:42:25.505Z,26.28
2024-03-06T03:43:25.576Z,26.30
2024-03-06T03:44:25.699Z,26.27
2024-03-06T03:45:25.704Z,26.24
2024-03-06T03:46:25.746Z,26.27
2024-03-06T03:47:25.799Z,26.28
2024-03-06T03:48:25.837Z,26.27
2024-03-06T03:49:25.883Z,26.27
2024-03-06T03:50:25.993Z,26.25
2024-03-06T03:51:26.011Z,26.27
2024-03-06T03:52:26.051Z,26.28
2024-03-06T03:53:26.114Z,26.28
2024-03-06T03:54:26.175Z,26.25
2024-03-06T03:55:26.213Z,26.27
2024-03-06T03:56:26.271Z,26.27
2024-03-06T03:57:26.332Z,26.27
2024-03-06T03:58:26.377Z,26.25
2024-03-06T03:59:26.502Z,26.27
2024-03-06T04:00:26.506Z,26.27
2024-03-06T04:01:26.592Z,26.25
2024-03-06T04:02:26.629Z,26.24
2024-03-06T04:03:26.656Z,26.27
2024-03-06T04:04:26.695Z,26.25
2024-03-06T04:05:26.798Z,26.25
2024-03-06T04:06:26.819Z,26.27
2024-03-06T04:07:26.861Z,26.25
2024-03-06T04:08:26.912Z,26.27
2024-03-06T04:09:26.966Z,26.27
2024-03-06T04:10:27.037Z,26.25
2024-03-06T04:11:27.303Z,26.27
2024-03-06T04:12:27.126Z,26.25
2024-03-06T04:13:28.110Z,26.27
2024-03-06T04:14:27.231Z,26.25
2024-03-06T04:15:27.315Z,26.25
2024-03-06T04:16:27.846Z,26.25
2024-03-06T04:17:27.423Z,26.25
2024-03-06T04:18:34.573Z,26.21
2024-03-06T04:19:34.602Z,26.22
2024-03-06T04:20:34.585Z,26.24
2024-03-06T04:21:34.583Z,26.24
2024-03-06T04:22:34.584Z,26.25
2024-03-06T04:23:34.599Z,26.25
2024-03-06T04:24:34.581Z,26.24
2024-03-06T04:25:34.687Z,26.25
2024-03-06T04:26:34.580Z,26.24
2024-03-06T04:27:34.588Z,26.27
2024-03-06T04:28:34.619Z,26.24
2024-03-06T04:29:34.593Z,26.25
2024-03-06T04:30:34.580Z,26.27
2024-03-06T04:31:41.794Z,26.21
2024-03-06T04:32:41.802Z,26.24
2024-03-06T04:33:41.771Z,26.22
2024-03-06T04:34:41.781Z,26.22
2024-03-06T04:35:41.757Z,26.24
2024-03-06T04:36:41.769Z,26.27
2024-03-06T04:37:41.783Z,26.25
2024-03-06T04:38:41.775Z,26.25
2024-03-06T04:39:41.762Z,26.24
2024-03-06T04:40:41.819Z,26.24
2024-03-06T04:41:41.767Z,26.22
2024-03-06T04:42:41.790Z,26.24
2024-03-06T04:43:41.792Z,26.22
2024-03-06T04:44:41.785Z,26.24
2024-03-06T04:45:41.790Z,26.22
2024-03-06T04:46:41.826Z,26.24
2024-03-06T04:47:41.861Z,26.24
2024-03-06T04:48:41.781Z,26.21
2024-03-06T04:49:41.814Z,26.24
2024-03-06T04:50:42.389Z,26.21
2024-03-06T04:51:41.818Z,26.22
2024-03-06T04:52:41.863Z,26.25
2024-03-06T04:53:41.798Z,26.24
2024-03-06T04:54:41.801Z,26.22
2024-03-06T04:55:41.836Z,26.27
2024-03-06T04:56:41.828Z,26.22
2024-03-06T04:57:41.845Z,26.24
2024-03-06T04:58:41.864Z,26.25
2024-03-06T04:59:41.801Z,26.25
2024-03-06T05:00:41.800Z,26.24
2024-03-06T05:01:41.803Z,26.22
2024-03-06T05:58:12.282Z,26.20
2024-03-06T05:58:42.203Z,26.20
2024-03-06T05:59:42.198Z,26.18
2024-03-06T06:00:42.329Z,26.20
2024-03-06T06:01:42.240Z,26.18
2024-03-06T06:02:42.226Z,26.21
2024-03-06T06:03:42.259Z,26.21
2024-03-06T06:04:51.491Z,26.20
2024-03-06T06:05:43.368Z,26.21
2024-03-06T06:06:42.421Z,26.20
2024-03-06T06:07:42.301Z,26.20
2024-03-06T06:08:42.345Z,26.21
2024-03-06T06:09:42.305Z,26.22
2024-03-06T06:10:42.463Z,26.21
2024-03-06T06:11:42.350Z,26.22
2024-03-06T06:12:42.329Z,26.21
2024-03-06T06:13:42.337Z,26.20
2024-03-06T06:14:42.328Z,26.22
2024-03-06T06:15:42.306Z,26.22
2024-03-06T06:16:42.322Z,26.20
2024-03-06T06:17:42.413Z,26.21
2024-03-06T06:18:42.397Z,26.22
2024-03-06T06:19:42.439Z,26.21
2024-03-06T06:20:42.570Z,26.24
2024-03-06T06:21:42.516Z,26.22
2024-03-06T06:22:42.572Z,26.22
2024-03-06T06:23:42.649Z,26.22
2024-03-06T06:24:45.964Z,26.22
2024-03-06T06:25:42.675Z,26.22
2024-03-06T06:26:42.952Z,26.22
2024-03-06T06:27:42.649Z,26.21
2024-03-06T06:28:42.655Z,26.22
2024-03-06T06:29:42.765Z,26.25
2024-03-06T06:30:42.687Z,26.24
2024-03-06T06:31:42.942Z,26.24
2024-03-06T06:32:43.407Z,26.24
2024-03-06T06:33:42.684Z,26.15
2024-03-06T06:34:42.695Z,25.59
2024-03-06T06:35:42.772Z,25.15
2024-03-06T06:36:42.664Z,24.68
2024-03-06T06:37:42.718Z,24.40
2024-03-06T06:38:42.704Z,24.27
2024-03-06T06:39:42.693Z,24.23
2024-03-06T06:40:42.680Z,24.27
2024-03-06T06:41:42.969Z,24.35
2024-03-06T06:42:42.701Z,24.46
2024-03-06T06:43:42.827Z,24.55
2024-03-06T06:44:43.016Z,24.67
2024-03-06T06:45:42.942Z,24.79
2024-03-06T06:46:43.040Z,24.92
2024-03-06T06:47:43.195Z,25.05
2024-03-06T06:48:43.038Z,25.18
2024-03-06T06:49:42.981Z,25.33
2024-03-06T06:50:43.091Z,25.42
2024-03-06T06:51:43.089Z,25.57
2024-03-06T06:52:43.146Z,25.64
2024-03-06T06:53:43.338Z,25.70
2024-03-06T06:54:43.250Z,25.81
2024-03-06T06:55:43.294Z,25.91
2024-03-06T06:56:43.431Z,25.97
2024-03-06T06:57:43.370Z,26.05
2024-03-06T06:58:43.409Z,26.17
2024-03-06T06:59:43.485Z,26.24
2024-03-06T07:00:43.520Z,26.31
2024-03-06T07:01:43.518Z,26.35
2024-03-06T07:02:43.551Z,26.39
2024-03-06T07:03:43.576Z,26.43
2024-03-06T07:04:43.596Z,26.51
2024-03-06T07:05:43.631Z,26.52
2024-03-06T07:06:43.670Z,26.56
2024-03-06T07:07:43.609Z,26.59
2024-03-06T07:08:43.684Z,26.64
2024-03-06T07:09:43.620Z,26.68
2024-03-06T07:10:43.628Z,26.73
2024-03-06T07:11:43.684Z,26.64
2024-03-06T07:12:43.646Z,26.76
2024-03-06T07:13:43.665Z,26.80
2024-03-06T07:14:43.769Z,26.83
2024-03-06T07:15:43.735Z,26.80
2024-03-06T07:16:43.961Z,26.87
2024-03-06T07:17:43.884Z,26.90
2024-03-06T07:18:43.869Z,26.92
2024-03-06T07:19:43.954Z,26.96
2024-03-06T07:20:44.092Z,27.00
2024-03-06T07:21:44.098Z,26.97
2024-03-06T07:22:44.157Z,27.03
2024-03-06T07:23:44.251Z,27.06
2024-03-06T07:24:44.321Z,27.07
2024-03-06T07:25:44.394Z,27.06
2024-03-06T07:26:45.010Z,27.06
2024-03-06T07:27:44.522Z,27.09
2024-03-06T07:28:44.617Z,27.10
2024-03-06T07:29:44.729Z,27.13
2024-03-06T07:30:44.724Z,27.10
2024-03-06T07:31:44.973Z,27.06
2024-03-06T07:32:44.889Z,27.04
2024-03-06T07:33:45.024Z,27.09
2024-03-06T07:34:44.993Z,27.11
2024-03-06T07:35:46.017Z,27.14
2024-03-06T07:36:45.456Z,27.18
2024-03-06T07:37:45.185Z,27.20
2024-03-06T07:38:45.316Z,27.23
2024-03-06T07:39:45.319Z,27.15
2024-03-06T07:40:45.353Z,27.03
2024-03-06T07:41:45.515Z,26.82
2024-03-06T07:42:45.410Z,26.69
2024-03-06T07:43:45.440Z,26.49
2024-03-06T07:44:45.614Z,26.31
2024-03-06T07:45:45.513Z,26.09
2024-03-06T07:46:46.039Z,25.88
2024-03-06T07:47:45.617Z,25.74
2024-03-06T07:48:45.609Z,25.62
2024-03-06T07:49:45.741Z,25.43
2024-03-06T07:50:45.749Z,25.30
2024-03-06T07:51:45.779Z,25.16
2024-03-06T07:52:45.765Z,25.08
2024-03-06T07:53:45.832Z,25.01
2024-03-06T07:54:45.844Z,24.89
2024-03-06T07:55:45.830Z,24.82
2024-03-06T07:56:45.890Z,24.75
2024-03-06T07:57:47.545Z,24.72
2024-03-06T07:58:45.917Z,24.71
2024-03-06T07:59:46.003Z,24.67
2024-03-06T08:00:45.994Z,24.67
2024-03-06T08:01:46.069Z,24.64
2024-03-06T08:02:46.100Z,24.60
2024-03-06T08:03:46.099Z,24.55
2024-03-06T08:04:46.131Z,24.50
2024-03-06T08:05:46.292Z,24.50
2024-03-06T08:06:46.148Z,24.47
2024-03-06T08:07:46.153Z,24.41
2024-03-06T08:08:46.181Z,24.43
2024-03-06T08:09:46.159Z,24.46
2024-03-06T08:10:46.322Z,24.47
2024-03-06T08:11:46.277Z,24.47
2024-03-06T08:12:46.330Z,24.40
2024-03-06T08:13:46.386Z,24.37
2024-03-06T08:14:46.500Z,24.35
2024-03-06T08:15:46.545Z,24.35
2024-03-06T08:16:47.006Z,24.33
2024-03-06T08:17:46.778Z,24.31
2024-03-06T08:18:46.744Z,24.35
2024-03-06T08:19:46.814Z,24.30
2024-03-06T08:20:46.958Z,24.30
2024-03-06T08:21:47.002Z,24.31
2024-03-06T08:22:47.004Z,24.30
2024-03-06T08:23:47.092Z,24.34
2024-03-06T08:24:47.108Z,24.37
2024-03-06T08:25:47.170Z,24.44
2024-03-06T08:26:47.528Z,24.52
2024-03-06T08:27:47.293Z,24.61
2024-03-06T08:28:47.386Z,24.79
2024-03-06T08:29:47.407Z,24.93
2024-03-06T08:30:47.415Z,25.09
2024-03-06T08:31:47.503Z,25.23
2024-03-06T08:32:47.734Z,25.34
2024-03-06T08:33:47.646Z,25.53
2024-03-06T08:34:47.565Z,25.66
2024-03-06T08:35:47.706Z,25.77
2024-03-06T08:36:47.716Z,25.90
2024-03-06T08:37:47.723Z,26.01
2024-03-06T08:38:47.755Z,26.07
2024-03-06T08:39:47.775Z,26.18
2024-03-06T08:40:47.791Z,26.27
2024-03-06T08:41:47.925Z,26.36
2024-03-06T08:42:47.853Z,26.45
2024-03-06T08:43:47.879Z,26.49
2024-03-06T08:44:47.911Z,26.59
2024-03-06T08:45:47.904Z,26.62
2024-03-06T08:46:47.930Z,26.68
2024-03-06T08:47:48.159Z,26.73
2024-03-06T08:48:47.936Z,26.79
2024-03-06T08:49:47.955Z,26.80
2024-03-06T08:50:48.062Z,26.87
2024-03-06T08:51:48.040Z,26.89
2024-03-06T08:52:48.182Z,26.90
2024-03-06T08:53:48.189Z,26.94
2024-03-06T08:54:48.224Z,27.00
2024-03-06T08:55:48.270Z,27.00
2024-03-06T08:56:48.356Z,27.06
2024-03-06T08:57:48.412Z,27.06
2024-03-06T08:58:48.490Z,27.07
2024-03-06T08:59:48.548Z,27.10
2024-03-06T09:00:48.618Z,27.10
2024-03-06T09:01:48.708Z,27.11
2024-03-06T09:02:48.770Z,27.15
2024-03-06T09:03:48.771Z,27.14
2024-03-06T09:04:48.816Z,27.15
2024-03-06T09:05:48.903Z,27.15
2024-03-06T09:06:48.970Z,27.20
2024-03-06T09:07:49.024Z,27.17
2024-03-06T09:08:49.138Z,27.21
2024-03-06T09:09:49.206Z,27.20
2024-03-06T09:10:49.201Z,27.21
2024-03-06T09:11:49.340Z,27.24
2024-03-06T09:12:49.329Z,27.24
2024-03-06T09:13:49.389Z,27.29
2024-03-06T09:14:49.515Z,27.29
2024-03-06T09:15:49.494Z,27.31
2024-03-06T09:16:49.566Z,27.34
2024-03-06T09:17:49.734Z,27.38
2024-03-06T09:18:49.748Z,27.33
2024-03-06T09:19:59.756Z,27.37
2024-03-06T09:20:50.845Z,27.37
2024-03-06T09:21:50.072Z,27.33
2024-03-06T09:22:49.725Z,26.87
2024-03-06T09:23:49.758Z,26.30
2024-03-06T09:24:49.736Z,25.50
2024-03-06T09:25:49.722Z,24.60
2024-03-06T09:26:49.756Z,24.28
2024-03-06T09:27:49.729Z,24.14
2024-03-06T09:28:49.718Z,24.13
2024-03-06T09:29:49.736Z,24.20
2024-03-06T09:30:49.724Z,24.34
2024-03-06T09:31:49.742Z,24.46
2024-03-06T09:32:49.791Z,24.62
2024-03-06T09:33:49.754Z,24.83
2024-03-06T09:34:49.770Z,24.96
2024-03-06T09:35:49.878Z,25.12
2024-03-06T09:36:50.013Z,25.21
2024-03-06T09:37:49.899Z,25.37
2024-03-06T09:38:49.943Z,25.54
2024-03-06T09:39:49.985Z,25.63
2024-03-06T09:40:49.999Z,25.80
2024-03-06T09:41:50.515Z,25.91
2024-03-06T09:42:50.138Z,26.04
2024-03-06T09:43:50.153Z,26.11
2024-03-06T09:44:50.176Z,26.24
2024-03-06T09:45:50.228Z,26.30
2024-03-06T09:46:50.243Z,26.38
2024-03-06T09:47:50.467Z,26.43
2024-03-06T09:48:50.271Z,26.51
2024-03-06T09:49:50.315Z,26.55
2024-03-06T09:50:50.392Z,26.59
2024-03-06T09:51:50.321Z,26.63
2024-03-06T09:52:50.347Z,26.69
2024-03-06T09:53:50.367Z,26.73
2024-03-06T09:54:50.357Z,26.78
2024-03-06T09:55:50.365Z,26.82
2024-03-06T09:56:50.411Z,26.85
2024-03-06T09:57:50.375Z,26.87
2024-03-06T09:58:50.365Z,26.89
2024-03-06T09:59:50.447Z,26.92
2024-03-06T10:00:50.439Z,26.94
2024-03-06T10:01:50.443Z,26.97
2024-03-06T10:02:50.548Z,26.96
2024-03-06T10:03:50.501Z,27.02
2024-03-06T10:04:50.573Z,27.02
2024-03-06T10:05:50.666Z,27.04
2024-03-06T10:06:51.025Z,27.04
2024-03-06T10:07:50.755Z,27.07
2024-03-06T10:08:50.874Z,27.10
2024-03-06T10:09:51.026Z,27.11
2024-03-06T10:10:50.960Z,27.11
2024-03-06T10:11:51.121Z,27.13
2024-03-06T10:12:51.133Z,27.17
2024-03-06T10:13:51.184Z,27.18
2024-03-06T10:14:51.404Z,27.20
2024-03-06T10:15:51.284Z,27.20
2024-03-06T10:16:51.340Z,27.20
2024-03-06T10:17:51.634Z,27.21
2024-03-06T10:18:51.545Z,27.24
2024-03-06T10:19:51.617Z,27.29
2024-03-06T10:20:51.632Z,27.26
2024-03-06T10:21:51.641Z,27.27
2024-03-06T10:22:54.761Z,27.26
2024-03-06T10:23:52.719Z,27.31
2024-03-06T10:24:51.698Z,27.29
2024-03-06T10:25:51.686Z,27.31
2024-03-06T10:26:51.723Z,27.31
2024-03-06T10:27:51.714Z,27.18
2024-03-06T10:28:52.021Z,27.26
2024-03-06T10:29:51.784Z,27.30
2024-03-06T10:30:51.689Z,27.30
2024-03-06T10:31:51.793Z,27.29
2024-03-06T10:32:52.016Z,27.34
2024-03-06T10:33:52.078Z,27.20
2024-03-06T10:34:51.811Z,27.27
2024-03-06T10:35:52.017Z,27.21
2024-03-06T10:36:51.856Z,27.29
2024-03-06T10:37:51.903Z,27.30
2024-03-06T10:38:51.981Z,27.34
2024-03-06T10:39:51.974Z,27.37
2024-03-06T10:40:52.018Z,27.41
2024-03-06T10:41:52.075Z,27.47
2024-03-06T10:42:52.092Z,27.51
2024-03-06T10:43:52.081Z,27.52
2024-03-06T10:44:52.107Z,27.57
2024-03-06T10:45:52.164Z,27.61
2024-03-06T10:46:52.159Z,27.64
2024-03-06T10:47:52.306Z,27.65
2024-03-06T10:48:52.237Z,27.71
2024-03-06T10:49:52.245Z,27.74
2024-03-06T10:50:52.371Z,27.77
2024-03-06T10:51:52.533Z,27.78
2024-03-06T10:52:52.338Z,27.66
2024-03-06T10:53:52.422Z,27.68
2024-03-06T10:54:52.380Z,27.69
2024-03-06T10:55:52.505Z,27.69
2024-03-06T10:56:52.550Z,27.77
2024-03-06T10:57:52.455Z,27.77
2024-03-06T10:58:52.513Z,27.82
2024-03-06T10:59:52.525Z,27.84
2024-03-06T11:00:52.535Z,27.87
2024-03-06T11:01:52.558Z,27.88
2024-03-06T11:02:52.568Z,27.89
2024-03-06T11:03:52.580Z,27.89
2024-03-06T11:04:52.594Z,27.89
2024-03-06T11:05:53.165Z,27.96
2024-03-06T11:06:52.610Z,27.95
2024-03-06T11:07:52.638Z,27.99
2024-03-06T11:08:52.637Z,28.05
2024-03-06T11:09:52.633Z,28.03
2024-03-06T11:10:52.690Z,28.06
2024-03-06T11:11:52.787Z,28.03
2024-03-06T11:12:52.630Z,28.03
2024-03-06T11:13:52.664Z,28.01
2024-03-06T11:14:52.691Z,27.93
2024-03-06T11:15:52.634Z,28.02
2024-03-06T11:16:52.640Z,27.98
2024-03-06T11:17:52.818Z,28.02
2024-03-06T11:18:52.724Z,28.06
2024-03-06T11:19:52.756Z,28.11
2024-03-06T11:20:52.844Z,28.09
2024-03-06T11:21:53.056Z,28.11
2024-03-06T11:22:52.892Z,28.15
2024-03-06T11:23:52.976Z,28.11
2024-03-06T11:24:53.004Z,28.11
2024-03-06T11:25:53.051Z,28.05
2024-03-06T11:26:53.599Z,28.11
2024-03-06T11:27:53.166Z,28.11
2024-03-06T11:28:53.208Z,28.12
2024-03-06T11:29:53.284Z,28.18
2024-03-06T11:30:53.388Z,28.19
2024-03-06T11:31:53.413Z,28.20
2024-03-06T11:32:53.688Z,28.18
2024-03-06T11:33:53.770Z,28.19
2024-03-06T11:34:53.602Z,28.22
2024-03-06T11:35:53.655Z,28.22
2024-03-06T11:36:53.727Z,28.23
2024-03-06T11:37:53.759Z,28.24
2024-03-06T11:38:53.896Z,28.23
2024-03-06T11:39:53.892Z,28.19
2024-03-06T11:40:53.961Z,28.23
2024-03-06T11:41:54.177Z,28.26
2024-03-06T11:42:54.106Z,28.29
2024-03-06T11:43:54.189Z,28.30
2024-03-06T11:44:54.291Z,28.27
2024-03-06T11:45:54.282Z,28.27
2024-03-06T11:46:54.398Z,28.30
2024-03-06T11:47:54.512Z,28.26
2024-03-06T11:48:54.473Z,28.29
2024-03-06T11:49:54.615Z,28.32
2024-03-06T11:50:54.585Z,28.33
2024-03-06T11:51:54.697Z,28.32
2024-03-06T11:52:54.684Z,28.32
2024-03-06T11:53:54.789Z,28.33
2024-03-06T11:54:54.858Z,28.32
2024-03-06T11:55:54.867Z,28.33
2024-03-06T11:56:54.997Z,28.33
2024-03-06T11:57:54.974Z,28.35
2024-03-06T11:58:55.049Z,28.38
2024-03-06T11:59:55.120Z,28.35
2024-03-06T12:00:55.200Z,28.33
2024-03-06T12:01:55.205Z,28.38
2024-03-06T12:02:55.347Z,28.36
2024-03-06T12:03:55.293Z,28.39
2024-03-06T12:04:55.325Z,28.39
2024-03-06T12:05:55.393Z,28.42
2024-03-06T12:06:55.449Z,28.39
2024-03-06T12:07:55.466Z,28.43
2024-03-06T12:08:55.520Z,28.43
2024-03-06T12:09:55.583Z,28.42
2024-03-06T12:10:55.646Z,28.40
2024-03-06T12:11:56.190Z,28.44
2024-03-06T12:12:55.721Z,28.43
2024-03-06T12:13:55.775Z,28.42
2024-03-06T12:14:55.841Z,28.43
2024-03-06T12:15:55.901Z,28.38
2024-03-06T12:16:56.112Z,28.39
2024-03-06T12:17:56.145Z,28.38
2024-03-06T12:18:56.099Z,28.38
2024-03-06T12:19:56.155Z,28.35
2024-03-06T12:20:56.260Z,28.33
2024-03-06T12:21:56.625Z,28.30
2024-03-06T12:22:56.362Z,28.27
2024-03-06T12:23:56.461Z,28.30
2024-03-06T12:24:56.536Z,28.24
2024-03-06T12:26:05.274Z,28.23
2024-03-06T12:26:57.582Z,28.20
2024-03-06T12:27:56.601Z,28.19
2024-03-06T12:28:56.552Z,28.18
2024-03-06T12:29:56.634Z,28.15
2024-03-06T12:30:56.549Z,28.12
2024-03-06T12:31:56.654Z,28.11
2024-03-06T12:32:56.735Z,28.09
2024-03-06T12:33:56.560Z,28.08
2024-03-06T12:34:56.549Z,28.06
2024-03-06T12:35:56.589Z,28.03
2024-03-06T12:36:56.624Z,28.01
2024-03-06T12:37:56.581Z,27.99
2024-03-06T12:38:56.559Z,27.98
2024-03-06T12:39:56.583Z,27.95
2024-03-06T12:40:56.568Z,27.95
2024-03-06T12:41:56.704Z,27.93
2024-03-06T12:42:56.572Z,27.93
2024-03-06T12:43:56.598Z,27.95
2024-03-06T12:44:56.599Z,27.95
2024-03-06T12:45:56.637Z,27.93
2024-03-06T12:46:56.576Z,27.95
2024-03-06T12:47:56.749Z,27.93
2024-03-06T12:48:56.608Z,27.93
2024-03-06T12:49:56.628Z,27.92
2024-03-06T12:50:56.638Z,27.93
2024-03-06T12:51:56.667Z,27.93
2024-03-06T12:52:56.680Z,27.91
2024-03-06T12:53:56.753Z,27.92
2024-03-06T12:54:56.645Z,27.91
2024-03-06T12:55:56.676Z,27.91
2024-03-06T12:56:57.116Z,27.91
2024-03-06T12:57:56.690Z,27.89
2024-03-06T12:58:56.730Z,27.91
2024-03-06T12:59:56.727Z,27.89
2024-03-06T13:00:56.773Z,27.89
2024-03-06T13:01:56.894Z,27.92
2024-03-06T13:02:56.788Z,27.89
2024-03-06T13:04:04.928Z,27.87
2024-03-06T13:04:57.829Z,27.88
2024-03-06T13:05:56.851Z,27.88
2024-03-06T13:06:56.823Z,27.85
2024-03-06T13:07:56.838Z,27.89
2024-03-06T13:08:56.807Z,27.89
2024-03-06T13:09:56.919Z,27.89
2024-03-06T13:10:56.806Z,27.88
2024-03-06T13:11:56.933Z,27.88
2024-03-06T13:12:56.832Z,27.89
2024-03-06T13:13:56.829Z,27.89
2024-03-06T13:14:56.814Z,27.85
2024-03-06T13:15:56.816Z,27.88
2024-03-06T13:16:56.815Z,27.87
2024-03-06T13:17:56.945Z,27.87
2024-03-06T13:18:56.844Z,27.85
2024-03-06T13:19:56.844Z,27.87
2024-03-06T13:20:56.886Z,27.87
2024-03-06T13:21:56.993Z,27.87
2024-03-06T13:22:56.856Z,27.85
2024-03-06T13:23:56.821Z,27.84
2024-03-06T13:24:56.842Z,27.84
2024-03-06T13:25:56.857Z,27.84
2024-03-06T13:26:56.881Z,27.84
2024-03-06T13:27:56.838Z,27.85
2024-03-06T13:28:56.850Z,27.82
2024-03-06T13:29:56.833Z,27.82
2024-03-06T13:30:56.832Z,27.81
2024-03-06T13:31:56.850Z,27.81
2024-03-06T13:32:57.022Z,27.81
2024-03-06T13:33:56.896Z,27.80
2024-03-06T13:34:56.945Z,27.81
2024-03-06T13:35:57.033Z,27.77
2024-03-06T13:36:56.970Z,27.78
2024-03-06T13:37:56.984Z,27.80
2024-03-06T13:38:57.013Z,27.78
2024-03-06T13:39:57.034Z,27.81
2024-03-06T13:40:57.051Z,27.81
2024-03-06T13:41:57.113Z,27.80
2024-03-06T13:42:57.091Z,27.84
2024-03-06T13:43:57.108Z,27.81
2024-03-06T13:44:57.128Z,27.82
2024-03-06T13:45:57.129Z,27.82
2024-03-06T13:46:57.167Z,27.84
2024-03-06T13:47:57.266Z,27.85